Time;durP1;ratioP1;P1;durP2;ratioP2;P2;SDS_P1;SDS_P2;PMS_P1;PMS_P2;Temp;Humidity;BMP_temperature;BMP_pressure;BME280_temperature;BME280_humidity;BME280_pressure;Samples;Min_cycle;Max_cycle;Signal;HPM_P1;HPM_P2
2022/05/25 00:01:12;;;;;;;0.40;0.40;;;;;;;;;;4989737;28;20719;-61
2022/05/25 00:03:39;;;;;;;0.30;0.30;;;;;;;;;;4989848;28;20296;-61
2022/05/25 00:06:07;;;;;;;0.47;0.40;;;;;;;;;;4989986;28;20210;-61
2022/05/25 00:08:35;;;;;;;0.33;0.33;;;;;;;;;;4989885;28;20248;-61
2022/05/25 00:11:02;;;;;;;0.40;0.33;;;;;;;;;;4989697;28;20676;-61
2022/05/25 00:13:31;;;;;;;0.30;0.30;;;;;;;;;;4990060;28;20217;-61
2022/05/25 00:15:58;;;;;;;0.77;0.30;;;;;;;;;;4989653;28;20281;-61
2022/05/25 00:18:25;;;;;;;0.20;0.20;;;;;;;;;;4987510;28;20232;-61
2022/05/25 00:20:51;;;;;;;0.20;0.20;;;;;;;;;;4989402;28;20212;-61
2022/05/25 00:23:18;;;;;;;0.30;0.30;;;;;;;;;;4989624;28;20201;-62
2022/05/25 00:25:46;;;;;;;0.43;0.43;;;;;;;;;;4989838;28;20226;-61
2022/05/25 00:28:14;;;;;;;0.40;0.40;;;;;;;;;;4988825;28;20205;-61
2022/05/25 00:30:43;;;;;;;1.67;0.40;;;;;;;;;;4989359;28;20256;-61
2022/05/25 00:33:11;;;;;;;0.50;0.40;;;;;;;;;;4989094;28;20276;-62
2022/05/25 00:35:38;;;;;;;0.20;0.20;;;;;;;;;;4989379;28;20210;-61
2022/05/25 00:38:05;;;;;;;0.50;0.50;;;;;;;;;;4989341;28;20284;-61
2022/05/25 00:40:36;;;;;;;0.27;0.27;;;;;;;;;;4989189;28;20272;-62
2022/05/25 00:43:03;;;;;;;0.67;0.40;;;;;;;;;;4989604;28;20201;-61
2022/05/25 00:45:31;;;;;;;0.40;0.40;;;;;;;;;;4982442;28;20214;-61
2022/05/25 00:48:00;;;;;;;0.40;0.40;;;;;;;;;;4988498;28;20213;-62
2022/05/25 00:51:11;;;;;;;0.40;0.40;;;;;;;;;;4988768;28;20210;-61
2022/05/25 00:53:14;;;;;;;0.60;0.50;;;;;;;;;;4988613;28;20214;-61
2022/05/25 00:55:41;;;;;;;0.60;0.60;;;;;;;;;;4989052;28;20206;-60
2022/05/25 00:58:09;;;;;;;0.40;0.40;;;;;;;;;;4988550;28;20238;-61
2022/05/25 01:00:37;;;;;;;0.50;0.50;;;;;;;;;;4986699;28;20218;-61
2022/05/25 01:03:08;;;;;;;0.57;0.37;;;;;;;;;;4988205;28;20241;-61
2022/05/25 01:05:39;;;;;;;0.30;0.30;;;;;;;;;;4988788;28;20661;-61
2022/05/25 01:08:12;;;;;;;0.40;0.40;;;;;;;;;;4988520;28;20205;-61
2022/05/25 01:10:46;;;;;;;0.40;0.40;;;;;;;;;;4986773;28;20214;-61
2022/05/25 01:13:17;;;;;;;0.43;0.43;;;;;;;;;;4988927;28;20277;-61
2022/05/25 01:15:48;;;;;;;0.40;0.40;;;;;;;;;;4988590;28;20213;-60
2022/05/25 01:18:22;;;;;;;0.57;0.50;;;;;;;;;;4988279;28;20221;-61
2022/05/25 01:20:51;;;;;;;0.87;0.50;;;;;;;;;;4987803;28;20214;-61
2022/05/25 01:23:39;;;;;;;0.40;0.40;;;;;;;;;;4988867;28;20248;-61
2022/05/25 01:26:24;;;;;;;0.30;0.30;;;;;;;;;;4986697;28;20237;-61
2022/05/25 01:29:01;;;;;;;0.33;0.33;;;;;;;;;;4987380;28;20237;-61
2022/05/25 01:31:33;;;;;;;0.40;0.40;;;;;;;;;;4986455;28;20352;-61
2022/05/25 01:34:05;;;;;;;0.67;0.50;;;;;;;;;;4972448;28;20216;-61
2022/05/25 01:36:37;;;;;;;0.37;0.37;;;;;;;;;;4988449;28;20280;-61
2022/05/25 01:39:06;;;;;;;1.30;0.37;;;;;;;;;;4988447;28;20678;-61
2022/05/25 01:41:37;;;;;;;1.27;0.30;;;;;;;;;;4988187;28;20695;-62
2022/05/25 01:44:08;;;;;;;0.23;0.23;;;;;;;;;;4987968;28;20209;-61
2022/05/25 01:46:38;;;;;;;0.30;0.30;;;;;;;;;;4988537;28;20214;-61
2022/05/25 01:49:06;;;;;;;0.57;0.40;;;;;;;;;;4987621;28;20208;-61
2022/05/25 01:51:36;;;;;;;0.40;0.40;;;;;;;;;;4988609;28;20260;-61
2022/05/25 01:54:05;;;;;;;0.50;0.50;;;;;;;;;;4988051;28;20260;-62
2022/05/25 01:56:33;;;;;;;0.30;0.30;;;;;;;;;;4988354;28;20734;-61
2022/05/25 01:59:02;;;;;;;0.20;0.20;;;;;;;;;;4987734;28;20233;-61
2022/05/25 02:01:29;;;;;;;1.90;0.50;;;;;;;;;;4987187;28;20205;-61
2022/05/25 02:07:00;;;;;;;0.53;0.53;;;;;;;;;;4988145;28;20260;-61
2022/05/25 02:09:33;;;;;;;1.43;0.30;;;;;;;;;;4984204;28;20300;-61
2022/05/25 02:12:05;;;;;;;0.30;0.30;;;;;;;;;;4988445;28;20205;-61
2022/05/25 02:14:35;;;;;;;0.40;0.40;;;;;;;;;;4987356;28;20675;-61
2022/05/25 02:17:08;;;;;;;0.97;0.47;;;;;;;;;;4985941;28;20201;-61
2022/05/25 02:19:41;;;;;;;0.40;0.40;;;;;;;;;;4987945;28;20300;-61
2022/05/25 02:22:10;;;;;;;0.63;0.40;;;;;;;;;;4984824;28;20206;-61
2022/05/25 02:24:40;;;;;;;0.50;0.50;;;;;;;;;;4986991;28;20228;-61
2022/05/25 02:27:11;;;;;;;0.50;0.50;;;;;;;;;;4983425;28;20232;-61
2022/05/25 02:29:41;;;;;;;1.47;0.33;;;;;;;;;;4986129;28;20271;-61
2022/05/25 02:32:11;;;;;;;0.40;0.40;;;;;;;;;;4986054;28;20223;-62
2022/05/25 02:34:41;;;;;;;0.40;0.40;;;;;;;;;;4987346;28;20205;-61
2022/05/25 02:37:09;;;;;;;0.30;0.30;;;;;;;;;;4976581;28;20237;-61
2022/05/25 02:39:36;;;;;;;0.57;0.40;;;;;;;;;;4987414;28;20292;-61
2022/05/25 02:42:03;;;;;;;1.37;0.40;;;;;;;;;;4989029;28;20205;-61
2022/05/25 02:44:30;;;;;;;1.50;0.37;;;;;;;;;;4986666;28;20657;-61
2022/05/25 02:46:58;;;;;;;0.40;0.40;;;;;;;;;;4988925;28;20198;-61
2022/05/25 02:49:25;;;;;;;0.40;0.40;;;;;;;;;;4988850;28;20210;-62
2022/05/25 02:51:53;;;;;;;0.40;0.40;;;;;;;;;;4980235;28;20288;-61
2022/05/25 02:54:22;;;;;;;1.33;0.40;;;;;;;;;;4991296;28;20206;-61
2022/05/25 02:56:49;;;;;;;0.33;0.33;;;;;;;;;;4988687;28;20680;-61
2022/05/25 02:59:16;;;;;;;2.93;0.50;;;;;;;;;;4987717;28;20225;-61
2022/05/25 03:01:43;;;;;;;1.13;0.40;;;;;;;;;;4988890;28;20202;-61
2022/05/25 03:04:10;;;;;;;0.33;0.33;;;;;;;;;;4989041;28;20209;-61
2022/05/25 03:06:37;;;;;;;0.50;0.50;;;;;;;;;;4988667;28;20673;-61
2022/05/25 03:09:06;;;;;;;0.33;0.33;;;;;;;;;;4988736;28;20201;-62
2022/05/25 03:11:33;;;;;;;0.40;0.40;;;;;;;;;;4986895;28;20214;-62
2022/05/25 03:14:00;;;;;;;0.40;0.40;;;;;;;;;;4987113;28;20280;-62
2022/05/25 03:16:27;;;;;;;0.43;0.30;;;;;;;;;;4988951;28;20206;-62
2022/05/25 03:18:54;;;;;;;1.80;0.60;;;;;;;;;;4987571;28;20214;-62
2022/05/25 03:21:21;;;;;;;0.30;0.30;;;;;;;;;;4987353;28;20226;-62
2022/05/25 03:23:48;;;;;;;0.47;0.47;;;;;;;;;;4988313;28;20206;-62
2022/05/25 03:26:17;;;;;;;0.30;0.30;;;;;;;;;;4987418;28;20245;-61
2022/05/25 03:28:44;;;;;;;0.30;0.30;;;;;;;;;;4987109;28;20237;-61
2022/05/25 03:31:11;;;;;;;0.47;0.47;;;;;;;;;;4987654;28;20209;-61
2022/05/25 03:33:39;;;;;;;0.43;0.43;;;;;;;;;;4987224;28;20264;-61
2022/05/25 03:36:06;;;;;;;0.57;0.57;;;;;;;;;;4986543;28;20202;-62
2022/05/25 03:38:33;;;;;;;0.50;0.50;;;;;;;;;;4986352;28;20655;-61
2022/05/25 03:41:00;;;;;;;0.40;0.30;;;;;;;;;;4985911;28;20202;-61
2022/05/25 03:43:30;;;;;;;1.63;0.50;;;;;;;;;;4986798;28;20664;-61
2022/05/25 03:45:57;;;;;;;0.63;0.50;;;;;;;;;;4987532;28;20260;-60
2022/05/25 03:48:24;;;;;;;0.50;0.50;;;;;;;;;;4987125;28;20300;-61
2022/05/25 03:50:51;;;;;;;0.50;0.50;;;;;;;;;;4987372;28;20209;-60
2022/05/25 03:53:18;;;;;;;0.50;0.50;;;;;;;;;;4987381;28;20202;-60
2022/05/25 03:55:47;;;;;;;0.50;0.50;;;;;;;;;;4986658;28;20206;-60
2022/05/25 03:58:14;;;;;;;0.47;0.47;;;;;;;;;;4987931;28;20208;-60
2022/05/25 04:00:42;;;;;;;0.30;0.30;;;;;;;;;;4988899;28;20623;-60
2022/05/25 04:03:11;;;;;;;0.40;0.40;;;;;;;;;;4987816;28;20961;-60
2022/05/25 04:05:38;;;;;;;0.97;0.63;;;;;;;;;;4988109;28;20213;-60
2022/05/25 04:08:05;;;;;;;1.37;0.30;;;;;;;;;;4988562;28;20225;-60
2022/05/25 04:10:32;;;;;;;0.40;0.40;;;;;;;;;;4989050;28;20205;-60
2022/05/25 04:12:59;;;;;;;0.53;0.53;;;;;;;;;;4989519;28;20253;-60
2022/05/25 04:15:28;;;;;;;0.60;0.60;;;;;;;;;;4987957;28;20264;-60
2022/05/25 04:17:56;;;;;;;0.50;0.43;;;;;;;;;;4988162;28;20213;-60
2022/05/25 04:20:24;;;;;;;0.50;0.50;;;;;;;;;;4987546;28;20214;-60
2022/05/25 04:22:51;;;;;;;0.60;0.60;;;;;;;;;;4988133;28;20210;-60
2022/05/25 04:25:19;;;;;;;0.67;0.67;;;;;;;;;;4989464;28;20622;-60
2022/05/25 04:27:47;;;;;;;0.50;0.50;;;;;;;;;;4988648;28;20213;-60
2022/05/25 04:30:16;;;;;;;0.57;0.57;;;;;;;;;;4988522;28;20233;-60
2022/05/25 04:32:43;;;;;;;2.33;0.60;;;;;;;;;;4987566;28;20321;-60
2022/05/25 04:35:12;;;;;;;0.57;0.57;;;;;;;;;;4988674;28;20205;-60
2022/05/25 04:37:53;;;;;;;2.53;0.70;;;;;;;;;;4987616;28;20210;-60
2022/05/25 04:40:22;;;;;;;0.50;0.50;;;;;;;;;;4987546;28;20205;-60
2022/05/25 04:42:49;;;;;;;0.50;0.50;;;;;;;;;;4986868;28;20206;-62
2022/05/25 04:45:17;;;;;;;0.70;0.70;;;;;;;;;;4984754;28;20210;-63
2022/05/25 04:47:44;;;;;;;0.60;0.60;;;;;;;;;;4983927;28;20209;-59
2022/05/25 04:50:14;;;;;;;0.60;0.60;;;;;;;;;;4986100;28;20256;-59
2022/05/25 04:52:41;;;;;;;0.70;0.70;;;;;;;;;;4986513;28;20213;-60
2022/05/25 04:55:09;;;;;;;0.50;0.50;;;;;;;;;;4984631;28;20213;-61
2022/05/25 04:57:36;;;;;;;0.60;0.60;;;;;;;;;;4986618;28;20248;-60
2022/05/25 05:00:07;;;;;;;0.93;0.93;;;;;;;;;;4987324;28;20206;-60
2022/05/25 05:02:34;;;;;;;0.90;0.90;;;;;;;;;;4984807;28;20209;-62
2022/05/25 05:05:02;;;;;;;0.80;0.80;;;;;;;;;;4987722;28;20861;-60
2022/05/25 05:07:35;;;;;;;0.90;0.90;;;;;;;;;;4988483;28;20210;-60
2022/05/25 05:10:02;;;;;;;1.67;0.90;;;;;;;;;;4987646;28;20636;-61
2022/05/25 05:12:29;;;;;;;1.00;1.00;;;;;;;;;;4988531;28;20206;-60
2022/05/25 05:14:57;;;;;;;0.80;0.80;;;;;;;;;;4988340;28;20257;-62
2022/05/25 05:17:24;;;;;;;0.80;0.80;;;;;;;;;;4988229;28;20567;-61
2022/05/25 05:19:51;;;;;;;0.55;0.55;;;;;;;;;;4987802;28;20210;-61
2022/05/25 05:22:18;;;;;;;0.60;0.60;;;;;;;;;;4988011;28;20210;-61
2022/05/25 05:24:47;;;;;;;0.77;0.77;;;;;;;;;;4987881;28;20209;-59
2022/05/25 05:27:14;;;;;;;1.85;0.52;;;;;;;;;;4988222;28;20238;-61
2022/05/25 05:29:42;;;;;;;0.68;0.68;;;;;;;;;;4985801;28;20787;-61
2022/05/25 05:32:10;;;;;;;0.63;0.63;;;;;;;;;;4984052;28;20356;-62
2022/05/25 05:34:37;;;;;;;0.50;0.50;;;;;;;;;;4988122;28;20213;-62
2022/05/25 05:37:07;;;;;;;2.67;0.60;;;;;;;;;;4988112;28;20605;-60
2022/05/25 05:39:35;;;;;;;1.38;0.60;;;;;;;;;;4987951;28;20580;-60
2022/05/25 05:42:06;;;;;;;0.50;0.50;;;;;;;;;;4984001;28;20194;-60
2022/05/25 05:44:34;;;;;;;0.50;0.50;;;;;;;;;;4988097;28;20205;-62
2022/05/25 05:47:02;;;;;;;0.63;0.63;;;;;;;;;;4988420;28;20213;-61
2022/05/25 05:49:29;;;;;;;10.43;2.85;;;;;;;;;;4987663;28;20233;-60
2022/05/25 05:51:56;;;;;;;0.50;0.50;;;;;;;;;;4979379;28;20273;-60
2022/05/25 05:54:23;;;;;;;0.45;0.45;;;;;;;;;;4968110;28;20534;-60
2022/05/25 05:56:50;;;;;;;0.50;0.50;;;;;;;;;;4983398;28;20676;-60
2022/05/25 05:59:19;;;;;;;0.47;0.47;;;;;;;;;;4988014;28;20210;-60
2022/05/25 06:01:46;;;;;;;1.10;0.70;;;;;;;;;;4987408;28;20267;-60
2022/05/25 06:04:13;;;;;;;0.60;0.60;;;;;;;;;;4974319;28;20209;-60
2022/05/25 06:06:40;;;;;;;0.40;0.40;;;;;;;;;;4968081;28;20230;-60
2022/05/25 06:09:07;;;;;;;1.20;0.40;;;;;;;;;;4970978;28;20298;-60
2022/05/25 06:11:40;;;;;;;0.60;0.60;;;;;;;;;;4968691;28;20259;-60
2022/05/25 06:14:07;;;;;;;1.17;0.55;;;;;;;;;;4972302;28;20681;-60
2022/05/25 06:19:26;;;;;;;0.80;0.30;;;;;;;;;;4978565;28;20297;-61
2022/05/25 06:21:56;;;;;;;0.75;0.60;;;;;;;;;;4989747;28;20446;-61
2022/05/25 06:24:23;;;;;;;0.65;0.47;;;;;;;;;;4983918;28;20206;-61
2022/05/25 06:26:50;;;;;;;0.55;0.50;;;;;;;;;;4981079;28;20225;-61
2022/05/25 06:29:19;;;;;;;0.60;0.50;;;;;;;;;;4988874;28;20777;-62
2022/05/25 06:31:47;;;;;;;2.92;0.47;;;;;;;;;;4991555;28;20684;-61
2022/05/25 06:34:14;;;;;;;0.85;0.45;;;;;;;;;;4982157;28;20207;-61
2022/05/25 06:36:41;;;;;;;0.45;0.45;;;;;;;;;;4982580;28;20221;-61
2022/05/25 06:39:09;;;;;;;0.73;0.60;;;;;;;;;;4991016;28;20216;-61
2022/05/25 06:41:36;;;;;;;0.40;0.40;;;;;;;;;;4991108;28;20730;-61
2022/05/25 06:44:03;;;;;;;0.50;0.50;;;;;;;;;;4991167;28;20217;-61
2022/05/25 06:46:30;;;;;;;1.70;0.40;;;;;;;;;;4991473;28;20216;-62
2022/05/25 06:48:59;;;;;;;2.83;0.30;;;;;;;;;;4991177;28;20233;-62
2022/05/25 06:51:26;;;;;;;3.50;0.60;;;;;;;;;;4979617;28;20214;-62
2022/05/25 06:53:53;;;;;;;0.47;0.47;;;;;;;;;;4974228;28;20219;-62
2022/05/25 06:56:22;;;;;;;1.02;0.50;;;;;;;;;;4983749;28;20264;-62
2022/05/25 06:58:49;;;;;;;0.55;0.30;;;;;;;;;;4982457;28;20209;-61
2022/05/25 07:01:16;;;;;;;0.28;0.28;;;;;;;;;;4991276;28;20217;-61
2022/05/25 07:03:43;;;;;;;0.40;0.40;;;;;;;;;;4991134;28;20210;-61
2022/05/25 07:06:13;;;;;;;0.40;0.40;;;;;;;;;;4990401;28;20613;-61
2022/05/25 07:08:40;;;;;;;0.40;0.40;;;;;;;;;;4990712;28;20209;-62
2022/05/25 07:11:07;;;;;;;0.40;0.40;;;;;;;;;;4990853;28;20268;-61
2022/05/25 07:13:34;;;;;;;0.30;0.30;;;;;;;;;;4990560;28;20216;-61
2022/05/25 07:16:02;;;;;;;0.75;0.40;;;;;;;;;;4990591;28;20256;-60
2022/05/25 07:18:29;;;;;;;0.55;0.35;;;;;;;;;;4990122;28;20202;-60
2022/05/25 07:20:59;;;;;;;0.30;0.30;;;;;;;;;;4989685;28;20256;-62
2022/05/25 07:23:27;;;;;;;1.05;0.57;;;;;;;;;;4989539;28;20217;-63
2022/05/25 07:25:54;;;;;;;1.13;0.38;;;;;;;;;;4988519;28;20232;-62
2022/05/25 07:28:21;;;;;;;0.30;0.30;;;;;;;;;;4989160;28;20218;-63
2022/05/25 07:30:49;;;;;;;0.30;0.30;;;;;;;;;;4989650;28;20242;-62
2022/05/25 07:33:16;;;;;;;0.40;0.40;;;;;;;;;;4989478;28;20210;-62
2022/05/25 07:35:43;;;;;;;0.52;0.40;;;;;;;;;;4989616;28;20585;-63
2022/05/25 07:38:10;;;;;;;1.40;0.40;;;;;;;;;;4989270;28;20206;-63
2022/05/25 07:40:40;;;;;;;0.40;0.40;;;;;;;;;;4989391;28;20662;-63
2022/05/25 07:43:10;;;;;;;0.20;0.20;;;;;;;;;;4989729;28;20585;-64
2022/05/25 07:45:37;;;;;;;0.20;0.20;;;;;;;;;;4989368;28;20289;-62
2022/05/25 07:48:05;;;;;;;1.45;0.20;;;;;;;;;;4989397;28;20268;-63
2022/05/25 07:50:33;;;;;;;0.30;0.30;;;;;;;;;;4988848;28;20268;-62
2022/05/25 07:53:01;;;;;;;0.30;0.30;;;;;;;;;;4989623;28;20224;-62
2022/05/25 07:55:28;;;;;;;1.40;0.40;;;;;;;;;;4989227;28;20308;-63
2022/05/25 07:57:57;;;;;;;0.20;0.20;;;;;;;;;;4989460;28;20211;-63
2022/05/25 08:00:25;;;;;;;0.70;0.30;;;;;;;;;;4989503;28;20209;-62
2022/05/25 08:05:46;;;;;;;0.40;0.30;;;;;;;;;;4987646;28;20213;-62
2022/05/25 08:08:14;;;;;;;0.30;0.30;;;;;;;;;;4987408;28;20237;-62
2022/05/25 08:10:42;;;;;;;0.20;0.20;;;;;;;;;;4989524;28;20241;-63
2022/05/25 08:13:13;;;;;;;3.30;0.30;;;;;;;;;;4988830;28;20216;-62
2022/05/25 08:15:42;;;;;;;0.20;0.20;;;;;;;;;;4988807;28;20210;-63
2022/05/25 08:18:10;;;;;;;0.30;0.30;;;;;;;;;;4989322;28;20240;-62
2022/05/25 08:20:37;;;;;;;5.45;0.45;;;;;;;;;;4988959;28;20260;-63
2022/05/25 08:23:05;;;;;;;0.75;0.40;;;;;;;;;;4989154;28;20221;-62
2022/05/25 08:25:32;;;;;;;0.63;0.50;;;;;;;;;;4989011;28;20658;-63
2022/05/25 08:27:59;;;;;;;0.30;0.30;;;;;;;;;;4989207;28;20218;-62
2022/05/25 08:30:27;;;;;;;0.40;0.40;;;;;;;;;;4988359;28;20678;-63
2022/05/25 08:32:55;;;;;;;0.22;0.22;;;;;;;;;;4987573;28;20249;-63
2022/05/25 08:35:22;;;;;;;2.63;0.30;;;;;;;;;;4988237;28;20210;-62
2022/05/25 08:37:49;;;;;;;0.20;0.20;;;;;;;;;;4988491;28;20280;-63
2022/05/25 08:40:18;;;;;;;0.20;0.20;;;;;;;;;;4988871;28;20206;-63
2022/05/25 08:42:49;;;;;;;0.20;0.20;;;;;;;;;;4988957;28;20686;-62
2022/05/25 08:45:17;;;;;;;0.65;0.30;;;;;;;;;;4988431;28;20272;-63
2022/05/25 08:47:46;;;;;;;0.20;0.20;;;;;;;;;;4989004;28;20703;-63
2022/05/25 08:50:14;;;;;;;1.00;0.20;;;;;;;;;;4988151;28;20229;-63
2022/05/25 08:52:41;;;;;;;0.38;0.20;;;;;;;;;;4988585;28;20296;-62
2022/05/25 08:55:09;;;;;;;0.20;0.20;;;;;;;;;;4988446;28;20236;-62
2022/05/25 08:57:40;;;;;;;0.30;0.30;;;;;;;;;;4988311;28;20213;-63
2022/05/25 09:00:09;;;;;;;0.20;0.20;;;;;;;;;;4988008;28;20209;-63
2022/05/25 09:02:41;;;;;;;0.20;0.20;;;;;;;;;;4987953;28;20213;-63
2022/05/25 09:05:16;;;;;;;0.38;0.30;;;;;;;;;;4988293;28;20206;-63
2022/05/25 09:07:47;;;;;;;0.30;0.30;;;;;;;;;;4988058;28;20201;-63
2022/05/25 09:10:16;;;;;;;0.20;0.20;;;;;;;;;;4988245;28;20606;-63
2022/05/25 09:12:46;;;;;;;0.20;0.20;;;;;;;;;;4988604;28;20237;-63
2022/05/25 09:15:17;;;;;;;0.20;0.20;;;;;;;;;;4988446;28;20205;-65
2022/05/25 09:17:46;;;;;;;0.20;0.20;;;;;;;;;;4988313;28;20209;-62
2022/05/25 09:20:16;;;;;;;1.17;0.30;;;;;;;;;;4988058;28;20300;-62
2022/05/25 09:22:43;;;;;;;0.10;0.10;;;;;;;;;;4988279;28;20611;-62
2022/05/25 09:25:12;;;;;;;0.10;0.10;;;;;;;;;;4988171;28;20297;-62
2022/05/25 09:27:41;;;;;;;1.00;0.15;;;;;;;;;;4987775;28;20214;-62
2022/05/25 09:30:08;;;;;;;0.40;0.40;;;;;;;;;;4988054;28;20326;-62
2022/05/25 09:32:38;;;;;;;0.20;0.20;;;;;;;;;;4988074;28;20221;-62
2022/05/25 09:35:09;;;;;;;1.33;0.35;;;;;;;;;;4988005;28;20209;-62
2022/05/25 09:37:41;;;;;;;0.88;0.30;;;;;;;;;;4984331;28;20225;-62
2022/05/25 09:40:11;;;;;;;0.68;0.30;;;;;;;;;;4984638;28;20234;-60
2022/05/25 09:42:38;;;;;;;0.35;0.30;;;;;;;;;;4981750;28;20297;-61
2022/05/25 09:45:09;;;;;;;0.20;0.20;;;;;;;;;;4968129;28;20237;-61
2022/05/25 09:47:41;;;;;;;0.20;0.20;;;;;;;;;;4981562;28;20209;-62
2022/05/25 09:50:09;;;;;;;0.20;0.10;;;;;;;;;;4972951;28;20919;-61
2022/05/25 09:52:46;;;;;;;0.10;0.10;;;;;;;;;;4968597;28;20210;-62
2022/05/25 09:55:16;;;;;;;0.60;0.30;;;;;;;;;;4968571;28;20218;-62
2022/05/25 09:57:45;;;;;;;0.40;0.40;;;;;;;;;;4985185;28;20220;-64
2022/05/25 10:00:17;;;;;;;0.20;0.17;;;;;;;;;;4983339;28;20206;-62
2022/05/25 10:02:49;;;;;;;0.15;0.15;;;;;;;;;;4972896;28;20209;-61
2022/05/25 10:05:17;;;;;;;1.08;0.20;;;;;;;;;;4980854;28;20756;-61
2022/05/25 10:07:53;;;;;;;1.98;0.20;;;;;;;;;;4979447;28;20284;-61
2022/05/25 10:10:30;;;;;;;4.40;0.20;;;;;;;;;;4987467;28;20233;-62
2022/05/25 10:13:00;;;;;;;0.20;0.20;;;;;;;;;;4987739;28;20217;-62
2022/05/25 10:15:33;;;;;;;0.20;0.20;;;;;;;;;;4984066;28;20287;-61
2022/05/25 10:18:00;;;;;;;0.20;0.20;;;;;;;;;;4967875;28;20210;-62
2022/05/25 10:20:28;;;;;;;0.55;0.10;;;;;;;;;;4967258;28;20673;-61
2022/05/25 10:23:03;;;;;;;0.38;0.22;;;;;;;;;;4967135;28;20689;-61
2022/05/25 10:25:34;;;;;;;0.10;0.10;;;;;;;;;;4967665;28;20570;-61
2022/05/25 10:28:01;;;;;;;0.20;0.20;;;;;;;;;;4986995;28;20245;-61
2022/05/25 10:39:17;;;;;;;0.30;0.20;;;;;;;;;;4980692;28;20271;-61
2022/05/25 10:41:45;;;;;;;0.30;0.30;;;;;;;;;;4986757;28;20213;-61
2022/05/25 10:44:15;;;;;;;0.20;0.20;;;;;;;;;;4985437;28;20300;-61
2022/05/25 10:46:46;;;;;;;0.85;0.20;;;;;;;;;;4983772;28;20709;-61
2022/05/25 10:49:17;;;;;;;0.32;0.32;;;;;;;;;;4987179;28;20220;-61
2022/05/25 10:51:46;;;;;;;2.05;0.40;;;;;;;;;;4986466;28;20244;-61
2022/05/25 10:57:21;;;;;;;0.28;0.20;;;;;;;;;;4984614;28;20269;-60
2022/05/25 10:59:52;;;;;;;0.20;0.20;;;;;;;;;;4982615;28;20730;-62
2022/05/25 11:02:29;;;;;;;0.10;0.10;;;;;;;;;;4991136;28;20220;-61
2022/05/25 11:05:01;;;;;;;0.20;0.20;;;;;;;;;;4990739;28;20264;-62
2022/05/25 11:07:33;;;;;;;0.30;0.30;;;;;;;;;;4990915;28;20217;-60
2022/05/25 11:10:08;;;;;;;0.15;0.15;;;;;;;;;;4986466;28;21041;-60
2022/05/25 11:12:41;;;;;;;0.22;0.13;;;;;;;;;;4990138;28;20213;-62
2022/05/25 11:15:17;;;;;;;0.20;0.20;;;;;;;;;;4989569;28;20210;-60
2022/05/25 11:17:52;;;;;;;0.10;0.10;;;;;;;;;;4990925;28;20216;-63
2022/05/25 11:20:24;;;;;;;0.20;0.20;;;;;;;;;;4985418;28;20209;-63
2022/05/25 11:23:15;;;;;;;0.20;0.20;;;;;;;;;;4975393;28;20636;-63
2022/05/25 11:25:50;;;;;;;0.73;0.73;;;;;;;;;;4978862;28;20234;-63
2022/05/25 11:28:23;;;;;;;0.20;0.20;;;;;;;;;;4990011;28;20205;-63
2022/05/25 11:31:06;;;;;;;0.15;0.15;;;;;;;;;;4989791;28;20222;-62
2022/05/25 11:33:44;;;;;;;0.45;0.43;;;;;;;;;;4980057;28;20213;-63
2022/05/25 11:36:16;;;;;;;0.20;0.20;;;;;;;;;;4989128;28;20256;-61
2022/05/25 11:38:50;;;;;;;0.17;0.17;;;;;;;;;;4989818;28;20212;-61
2022/05/25 11:41:22;;;;;;;1.00;0.17;;;;;;;;;;4989832;28;20354;-61
2022/05/25 11:44:14;;;;;;;1.35;0.20;;;;;;;;;;4989574;28;20695;-62
2022/05/25 11:46:44;;;;;;;3.30;0.22;;;;;;;;;;4985096;28;20602;-62
2022/05/25 11:49:32;;;;;;;1.20;0.10;;;;;;;;;;4989279;28;20244;-62
2022/05/25 11:52:05;;;;;;;0.63;0.20;;;;;;;;;;4990062;28;20699;-62
2022/05/25 11:54:44;;;;;;;0.20;0.20;;;;;;;;;;4989969;28;20217;-62
2022/05/25 11:57:17;;;;;;;0.40;0.20;;;;;;;;;;4982700;28;20210;-61
2022/05/25 11:59:58;;;;;;;0.20;0.20;;;;;;;;;;4970655;28;20214;-62
2022/05/25 12:02:38;;;;;;;0.20;0.20;;;;;;;;;;4968072;28;20756;-61
2022/05/25 12:05:12;;;;;;;0.20;0.20;;;;;;;;;;4970306;28;20214;-62
2022/05/25 12:07:48;;;;;;;0.17;0.17;;;;;;;;;;4979199;28;20256;-61
2022/05/25 12:10:26;;;;;;;0.88;0.20;;;;;;;;;;4989116;28;20249;-62
2022/05/25 12:12:57;;;;;;;0.32;0.20;;;;;;;;;;4989496;28;20220;-62
2022/05/25 12:15:25;;;;;;;0.20;0.20;;;;;;;;;;4989032;28;20615;-62
2022/05/25 12:18:01;;;;;;;0.30;0.30;;;;;;;;;;4989487;28;20324;-62
2022/05/25 12:20:31;;;;;;;0.55;0.40;;;;;;;;;;4989182;28;20695;-63
2022/05/25 12:23:00;;;;;;;0.32;0.32;;;;;;;;;;4989283;28;20217;-62
2022/05/25 12:25:27;;;;;;;0.70;0.30;;;;;;;;;;4989129;28;20680;-62
2022/05/25 12:27:57;;;;;;;1.20;0.60;;;;;;;;;;4988947;28;20221;-62
2022/05/25 12:30:28;;;;;;;0.52;0.43;;;;;;;;;;4988778;28;20260;-62
2022/05/25 12:32:57;;;;;;;0.47;0.40;;;;;;;;;;4989120;28;20232;-62
2022/05/25 12:35:24;;;;;;;0.40;0.40;;;;;;;;;;4989133;28;20221;-62
2022/05/25 12:37:53;;;;;;;0.30;0.30;;;;;;;;;;4989021;28;20572;-63
2022/05/25 12:40:35;;;;;;;0.40;0.40;;;;;;;;;;4988726;28;20245;-62
2022/05/25 12:43:02;;;;;;;0.63;0.63;;;;;;;;;;4988897;28;20220;-66
2022/05/25 12:48:40;;;;;;;0.40;0.40;;;;;;;;;;4989106;28;20212;-64
2022/05/25 12:51:10;;;;;;;3.35;0.30;;;;;;;;;;4988732;28;20406;-63
2022/05/25 12:53:39;;;;;;;0.20;0.20;;;;;;;;;;4989004;28;20656;-60
2022/05/25 12:56:07;;;;;;;0.40;0.30;;;;;;;;;;4988576;28;20260;-61
2022/05/25 12:58:38;;;;;;;0.20;0.20;;;;;;;;;;4988616;28;20210;-60
2022/05/25 13:01:06;;;;;;;0.20;0.20;;;;;;;;;;4988407;28;20288;-61
2022/05/25 13:03:41;;;;;;;0.30;0.30;;;;;;;;;;4988291;28;20217;-60
2022/05/25 13:06:09;;;;;;;0.30;0.20;;;;;;;;;;4988734;28;20212;-61
2022/05/25 13:09:07;;;;;;;0.22;0.22;;;;;;;;;;4988484;28;20813;-61
2022/05/25 13:11:36;;;;;;;0.20;0.20;;;;;;;;;;4988338;28;20238;-61
2022/05/25 13:14:06;;;;;;;0.20;0.20;;;;;;;;;;4988459;28;20762;-61
2022/05/25 13:16:52;;;;;;;0.20;0.20;;;;;;;;;;4985180;28;20215;-61
2022/05/25 13:19:21;;;;;;;0.20;0.20;;;;;;;;;;4968592;28;20218;-61
2022/05/25 13:22:04;;;;;;;0.20;0.20;;;;;;;;;;4968045;28;20206;-61
2022/05/25 13:24:42;;;;;;;0.20;0.13;;;;;;;;;;4969120;28;20293;-61
2022/05/25 13:27:21;;;;;;;0.30;0.30;;;;;;;;;;4981041;28;20284;-62
2022/05/25 13:29:55;;;;;;;0.28;0.20;;;;;;;;;;4987492;28;20237;-61
2022/05/25 13:32:34;;;;;;;0.45;0.40;;;;;;;;;;4987888;28;20233;-60
2022/05/25 13:35:05;;;;;;;0.30;0.30;;;;;;;;;;4988127;28;20272;-61
2022/05/25 13:37:32;;;;;;;1.50;0.30;;;;;;;;;;4988323;28;20272;-61
2022/05/25 13:39:59;;;;;;;0.40;0.40;;;;;;;;;;4985792;28;20218;-61
2022/05/25 13:42:26;;;;;;;1.60;0.30;;;;;;;;;;4987438;28;20264;-61
2022/05/25 13:44:57;;;;;;;0.35;0.30;;;;;;;;;;4988047;28;20217;-61
2022/05/25 13:47:26;;;;;;;0.28;0.28;;;;;;;;;;4987879;28;20206;-61
2022/05/25 13:49:55;;;;;;;0.15;0.10;;;;;;;;;;4987976;28;20217;-62
2022/05/25 13:52:46;;;;;;;0.30;0.30;;;;;;;;;;4986129;28;20241;-61
2022/05/25 13:55:25;;;;;;;0.30;0.20;;;;;;;;;;4983097;28;20206;-60
2022/05/25 13:57:54;;;;;;;0.47;0.20;;;;;;;;;;4987017;28;20727;-60
2022/05/25 14:00:24;;;;;;;0.15;0.15;;;;;;;;;;4986921;28;20316;-59
2022/05/25 14:02:53;;;;;;;0.15;0.15;;;;;;;;;;4985726;28;20206;-60
2022/05/25 14:05:23;;;;;;;1.17;0.20;;;;;;;;;;4986830;28;20232;-61
2022/05/25 14:07:52;;;;;;;0.40;0.30;;;;;;;;;;4986960;28;20590;-60
2022/05/25 14:13:27;;;;;;;0.30;0.30;;;;;;;;;;4987274;28;20807;-60
2022/05/25 14:16:02;;;;;;;0.75;0.50;;;;;;;;;;4982014;28;20209;-64
2022/05/25 14:18:31;;;;;;;0.40;0.40;;;;;;;;;;4987344;28;20232;-60
2022/05/25 14:20:58;;;;;;;0.40;0.40;;;;;;;;;;4986136;28;20218;-60
2022/05/25 14:23:29;;;;;;;0.40;0.40;;;;;;;;;;4986583;28;20210;-61
2022/05/25 14:25:58;;;;;;;0.40;0.40;;;;;;;;;;4985605;28;20233;-60
2022/05/25 14:28:29;;;;;;;0.85;0.40;;;;;;;;;;4985835;28;20206;-60
2022/05/25 14:30:56;;;;;;;0.35;0.35;;;;;;;;;;4983629;28;20214;-61
2022/05/25 14:33:23;;;;;;;0.52;0.45;;;;;;;;;;4987593;28;20217;-60
2022/05/25 14:35:53;;;;;;;0.40;0.40;;;;;;;;;;4990296;28;20234;-61
2022/05/25 14:38:21;;;;;;;0.30;0.30;;;;;;;;;;4990526;28;20218;-60
2022/05/25 14:40:51;;;;;;;0.20;0.20;;;;;;;;;;4990456;28;20632;-60
2022/05/25 14:43:35;;;;;;;1.25;0.20;;;;;;;;;;4969986;28;20699;-60
2022/05/25 14:46:07;;;;;;;0.10;0.10;;;;;;;;;;4971835;28;20232;-61
2022/05/25 14:48:34;;;;;;;2.40;0.28;;;;;;;;;;4973754;28;20229;-62
2022/05/25 14:51:02;;;;;;;1.27;0.75;;;;;;;;;;4986984;28;20304;-62
2022/05/25 14:53:31;;;;;;;0.55;0.55;;;;;;;;;;4990156;28;20859;-62
2022/05/25 14:56:01;;;;;;;0.55;0.55;;;;;;;;;;4989870;28;20220;-62
2022/05/25 14:58:32;;;;;;;0.40;0.40;;;;;;;;;;4990058;28;20702;-62
2022/05/25 15:01:00;;;;;;;0.20;0.20;;;;;;;;;;4980023;28;20221;-62
2022/05/25 15:03:30;;;;;;;0.30;0.30;;;;;;;;;;4969522;28;20602;-62
2022/05/25 15:06:01;;;;;;;0.20;0.20;;;;;;;;;;4970403;28;20218;-62
2022/05/25 15:08:31;;;;;;;0.20;0.20;;;;;;;;;;4985476;28;20209;-62
2022/05/25 15:11:18;;;;;;;0.30;0.30;;;;;;;;;;4990090;28;20630;-62
2022/05/25 15:19:23;;;;;;;0.25;0.17;;;;;;;;;;4988652;28;20695;-62
2022/05/25 15:21:50;;;;;;;4.45;0.40;;;;;;;;;;4966590;28;20936;-62
2022/05/25 15:24:18;;;;;;;0.50;0.40;;;;;;;;;;4970111;28;20301;-62
2022/05/25 15:26:57;;;;;;;0.20;0.20;;;;;;;;;;4988081;28;20773;-62
2022/05/25 15:29:31;;;;;;;0.10;0.10;;;;;;;;;;4989749;28;20249;-61
2022/05/25 15:32:00;;;;;;;0.17;0.17;;;;;;;;;;4989415;28;20677;-61